No particular awareness of the weather is required.    There are no Weather-warnings


Meteo18 Weather Cam more information Meteo18 Weather Cam


Thunder radar more information blitzortung!


Rain radar more information rain snow radar


Visit our other weather sites:

Template documentation
and downloads

And another site



Weather Underground History page Text

Daily Summary for June 23, 2017 Units:  English    Metric   Both
« Previous Day
Next Day »
Daily Weekly Monthly Yearly Custom
  High: Low: Average:
Temperature: TemperatureC °F 18.8 °F 22 °F
Dew Point: DewpointC °F 15.5 °F 16.6 °F
Humidity: Humidity % 55 % 72 %
Wind Speed: WindSpeedKMH mph 0.0 mph 3.1 mph
Wind Gust: WindSpeedGustKMH mph - -
Wind:- - West
Pressure: PressurehPa in 1016.5 in -
Precipitation: 0.0 in    
Historical Graphs
 
 
Tabular Data for June 23, 2017
Time Temperature Dew Point Pressure Wind Wind Speed Wind Gust Humidity Rainfall Rate (Hourly)
TemperatureC °F DewpointC °F PressurehPa in Calm     Humidity % HourlyPrecipMM in
00:02 23.7 °F 16.0 °F 1016.5 in SSW 1.6 mph 3.2 mph 62 % 0.0 in
00:12 23.7 °F 15.7 °F 1016.5 in Calm   3.2 mph 61 % 0.0 in
00:17 23.7 °F 15.7 °F 1016.8 in Calm   3.2 mph 61 % 0.0 in
00:22 23.6 °F 15.6 °F 1016.8 in Calm   1.6 mph 61 % 0.0 in
00:27 23.6 °F 15.6 °F 1016.8 in Calm   1.6 mph 61 % 0.0 in
00:32 23.5 °F 15.5 °F 1016.8 in Calm     61 % 0.0 in
00:37 23.3 °F 15.6 °F 1016.8 in Calm     62 % 0.0 in
00:42 23.1 °F 15.7 °F 1017.2 in Calm   3.2 mph 63 % 0.0 in
00:47 22.9 °F 15.7 °F 1017.2 in Calm   1.6 mph 64 % 0.0 in
00:52 22.7 °F 15.5 °F 1017.2 in Calm   1.6 mph 64 % 0.0 in
00:57 22.6 °F 15.7 °F 1017.2 in Calm   1.6 mph 65 % 0.0 in
01:02 22.4 °F 15.7 °F 1017.2 in Calm   1.6 mph 66 % 0.0 in
01:07 22.4 °F 15.7 °F 1017.2 in Calm   1.6 mph 66 % 0.0 in
01:12 22.4 °F 15.7 °F 1017.2 in Calm   1.6 mph 66 % 0.0 in
01:17 22.3 °F 15.6 °F 1017.2 in Calm   1.6 mph 66 % 0.0 in
01:22 22.1 °F 15.7 °F 1017.2 in Calm   1.6 mph 67 % 0.0 in
01:27 21.9 °F 15.7 °F 1017.2 in Calm   1.6 mph 68 % 0.0 in
01:32 21.8 °F 15.6 °F 1017.2 in Calm   1.6 mph 68 % 0.0 in
01:37 21.9 °F 15.7 °F 1017.2 in Calm     68 % 0.0 in
01:42 22.1 °F 15.7 °F 1017.5 in Calm     67 % 0.0 in
01:47 22.6 °F 15.7 °F 1017.5 in Calm   1.6 mph 65 % 0.0 in
01:52 22.4 °F 15.5 °F 1017.5 in Calm   1.6 mph 65 % 0.0 in
01:57 22.3 °F 15.6 °F 1017.5 in West 1.6 mph 3.2 mph 66 % 0.0 in
02:02 22.3 °F 15.6 °F 1017.5 in WNW 4.8 mph 4.8 mph 66 % 0.0 in
02:12 22.8 °F 16.1 °F 1017.5 in WNW 1.6 mph 6.4 mph 66 % 0.0 in
02:17 22.9 °F 16.4 °F 1017.5 in NW 3.2 mph 4.8 mph 67 % 0.0 in
02:22 22.9 °F 16.7 °F 1017.5 in WNW 1.6 mph 4.8 mph 68 % 0.0 in
02:32 22.6 °F 16.6 °F 1017.5 in Calm   4.8 mph 69 % 0.0 in
02:37 22.2 °F 16.7 °F 1017.5 in Calm   3.2 mph 71 % 0.0 in
02:42 21.9 °F 16.4 °F 1017.5 in Calm   3.2 mph 71 % 0.0 in
02:47 21.8 °F 16.5 °F 1017.5 in Calm   1.6 mph 72 % 0.0 in
02:52 21.9 °F 17.1 °F 1017.5 in Calm   1.6 mph 74 % 0.0 in
02:57 21.9 °F 17.3 °F 1017.5 in Calm     75 % 0.0 in
03:02 22.0 °F 17.4 °F 1017.5 in Calm     75 % 0.0 in
03:12 21.5 °F 16.7 °F 1017.5 in Calm     74 % 0.0 in
03:17 21.3 °F 16.5 °F 1017.8 in Calm     74 % 0.0 in
03:22 21.2 °F 16.6 °F 1017.5 in Calm     75 % 0.0 in
03:32 20.8 °F 16.4 °F 1017.5 in Calm     76 % 0.0 in
03:37 20.8 °F 16.8 °F 1017.8 in Calm     78 % 0.0 in
03:42 20.8 °F 17.0 °F 1017.8 in Calm     79 % 0.0 in
03:47 20.8 °F 17.0 °F 1017.8 in Calm     79 % 0.0 in
03:52 20.8 °F 17.2 °F 1017.8 in Calm     80 % 0.0 in
03:57 20.8 °F 17.2 °F 1017.8 in Calm     80 % 0.0 in
04:02 20.6 °F 17.0 °F 1018.2 in Calm     80 % 0.0 in
04:12 20.6 °F 17.4 °F 1018.2 in Calm     82 % 0.0 in
04:17 20.6 °F 17.4 °F 1018.2 in Calm     82 % 0.0 in
04:22 20.6 °F 17.6 °F 1017.8 in Calm     83 % 0.0 in
04:32 20.7 °F 17.9 °F 1017.8 in Calm     84 % 0.0 in
04:37 20.7 °F 17.7 °F 1017.8 in Calm     83 % 0.0 in
04:42 20.7 °F 17.9 °F 1018.2 in WNW 1.6 mph   84 % 0.0 in
04:47 20.6 °F 17.8 °F 1018.2 in WNW 3.2 mph 9.7 mph 84 % 0.0 in
04:52 20.4 °F 17.8 °F 1018.5 in Calm   9.7 mph 85 % 0.0 in
04:57 20.4 °F 17.8 °F 1018.5 in North 1.6 mph 9.7 mph 85 % 0.0 in
05:02 20.4 °F 17.8 °F 1018.5 in WNW 8.0 mph 9.7 mph 85 % 0.0 in
05:12 20.3 °F 17.7 °F 1018.8 in WNW 3.2 mph 11.3 mph 85 % 0.0 in
05:17 20.3 °F 17.7 °F 1018.8 in Calm   11.3 mph 85 % 0.0 in
05:22 20.2 °F 17.6 °F 1018.8 in Calm   11.3 mph 85 % 0.0 in
05:32 20.0 °F 17.4 °F 1018.8 in NW 3.2 mph 9.7 mph 85 % 0.0 in
05:42 19.8 °F 17.2 °F 1018.8 in Calm   9.7 mph 85 % 0.0 in
05:47 19.7 °F 17.1 °F 1018.8 in NW 1.6 mph 11.3 mph 85 % 0.0 in
05:52 19.6 °F 17.2 °F 1018.8 in NNW 1.6 mph 11.3 mph 86 % 0.0 in
06:02 19.4 °F 17.0 °F 1019.2 in NW 3.2 mph 11.3 mph 86 % 0.0 in
06:07 19.3 °F 16.9 °F 1019.2 in WNW 9.7 mph 11.3 mph 86 % 0.0 in
06:12 19.2 °F 16.8 °F 1018.8 in Calm   11.3 mph 86 % 0.0 in
06:17 19.2 °F 16.8 °F 1018.8 in Calm   9.7 mph 86 % 0.0 in
06:27 19.0 °F 16.6 °F 1019.2 in Calm   6.4 mph 86 % 0.0 in
06:32 18.9 °F 16.5 °F 1019.2 in WNW 1.6 mph 6.4 mph 86 % 0.0 in
06:37 18.9 °F 16.5 °F 1019.5 in Calm   6.4 mph 86 % 0.0 in
06:42 18.9 °F 16.3 °F 1019.5 in NW 4.8 mph 6.4 mph 85 % 0.0 in
06:47 19.0 °F 16.4 °F 1019.5 in Calm   9.7 mph 85 % 0.0 in
06:57 19.1 °F 16.3 °F 1019.9 in Calm   9.7 mph 84 % 0.0 in
07:02 19.1 °F 16.3 °F 1019.9 in North 3.2 mph 9.7 mph 84 % 0.0 in
07:12 19.2 °F 16.4 °F 1019.9 in WNW 1.6 mph 6.4 mph 84 % 0.0 in
07:17 19.1 °F 16.1 °F 1019.9 in West 1.6 mph 8.0 mph 83 % 0.0 in
07:22 19.1 °F 16.3 °F 1019.9 in Calm   8.0 mph 84 % 0.0 in
07:32 19.2 °F 16.2 °F 1019.9 in Calm   4.8 mph 83 % 0.0 in
07:42 19.4 °F 16.1 °F 1019.9 in Calm   6.4 mph 81 % 0.0 in
07:47 19.6 °F 16.2 °F 1020.2 in Calm   6.4 mph 81 % 0.0 in
07:52 19.7 °F 16.2 °F 1020.2 in NNW 3.2 mph 6.4 mph 80 % 0.0 in
07:57 19.7 °F 16.2 °F 1020.2 in Calm   4.8 mph 80 % 0.0 in
08:07 19.7 °F 16.2 °F 1020.5 in Calm   4.8 mph 80 % 0.0 in
08:12 19.7 °F 16.0 °F 1020.5 in Calm   4.8 mph 79 % 0.0 in
08:17 19.7 °F 16.2 °F 1020.2 in Calm   4.8 mph 80 % 0.0 in
08:22 19.8 °F 16.2 °F 1020.2 in Calm   4.8 mph 80 % 0.0 in
08:32 19.9 °F 16.1 °F 1020.5 in Calm   4.8 mph 79 % 0.0 in
08:42 20.2 °F 16.4 °F 1020.5 in ENE 1.6 mph 1.6 mph 79 % 0.0 in
08:52 20.2 °F 16.2 °F 1020.9 in Calm   3.2 mph 78 % 0.0 in
08:57 20.3 °F 16.1 °F 1020.9 in Calm   3.2 mph 77 % 0.0 in
09:02 20.3 °F 16.3 °F 1020.9 in Calm   3.2 mph 78 % 0.0 in
09:12 20.6 °F 16.4 °F 1020.9 in Calm   4.8 mph 77 % 0.0 in
09:17 20.7 °F 16.5 °F 1020.9 in SW 1.6 mph 4.8 mph 77 % 0.0 in
09:22 20.6 °F 16.2 °F 1021.2 in Calm   4.8 mph 76 % 0.0 in
09:27 20.6 °F 16.4 °F 1021.2 in Calm   3.2 mph 77 % 0.0 in
09:32 20.6 °F 16.4 °F 1021.2 in SSW 1.6 mph 3.2 mph 77 % 0.0 in
09:37 20.7 °F 16.5 °F 1021.2 in Calm   3.2 mph 77 % 0.0 in
09:42 20.9 °F 16.5 °F 1021.2 in SW 1.6 mph 3.2 mph 76 % 0.0 in
09:47 20.7 °F 16.5 °F 1021.2 in Calm   3.2 mph 77 % 0.0 in
09:52 20.7 °F 16.5 °F 1021.2 in Calm   3.2 mph 77 % 0.0 in
10:02 20.7 °F 16.5 °F 1021.2 in West 1.6 mph 4.8 mph 77 % 0.0 in
10:07 20.7 °F 16.5 °F 1021.2 in WSW 1.6 mph 4.8 mph 77 % 0.0 in
10:12 20.7 °F 16.7 °F 1021.2 in SSW 1.6 mph 4.8 mph 78 % 0.0 in
10:17 20.7 °F 16.5 °F 1021.2 in SSW 4.8 mph 6.4 mph 77 % 0.0 in
10:22 20.8 °F 16.6 °F 1021.6 in WSW 4.8 mph 6.4 mph 77 % 0.0 in
10:32 21.0 °F 16.6 °F 1021.2 in West 6.4 mph 6.4 mph 76 % 0.0 in
10:42 21.5 °F 16.7 °F 1021.2 in West 1.6 mph 6.4 mph 74 % 0.0 in
10:47 21.6 °F 16.6 °F 1021.2 in SW 1.6 mph 6.4 mph 73 % 0.0 in
10:52 21.7 °F 16.6 °F 1021.2 in SW 1.6 mph 6.4 mph 73 % 0.0 in
10:57 21.8 °F 16.7 °F 1021.6 in Calm   6.4 mph 73 % 0.0 in
11:02 22.0 °F 16.7 °F 1021.6 in West 1.6 mph 6.4 mph 72 % 0.0 in
11:12 21.9 °F 16.8 °F 1021.6 in West 1.6 mph 3.2 mph 73 % 0.0 in
11:17 21.8 °F 17.0 °F 1021.6 in SSW 4.8 mph 6.4 mph 74 % 0.0 in
11:22 21.7 °F 17.1 °F 1021.6 in SW 4.8 mph 6.4 mph 75 % 0.0 in
11:32 21.8 °F 17.4 °F 1021.6 in Calm   9.7 mph 76 % 0.0 in
11:42 21.7 °F 17.1 °F 1021.6 in WNW 3.2 mph 9.7 mph 75 % 0.0 in
11:47 21.7 °F 17.3 °F 1021.6 in Calm   9.7 mph 76 % 0.0 in
11:52 21.8 °F 17.4 °F 1021.6 in WSW 8.0 mph 9.7 mph 76 % 0.0 in
12:02 21.9 °F 17.5 °F 1021.6 in WSW 4.8 mph 11.3 mph 76 % 0.0 in
12:12 22.1 °F 17.5 °F 1021.6 in SW 3.2 mph 11.3 mph 75 % 0.0 in
12:17 22.3 °F 17.7 °F 1021.6 in WNW 4.8 mph 12.9 mph 75 % 0.0 in
12:22 22.3 °F 17.4 °F 1021.6 in WSW 11.3 mph 12.9 mph 74 % 0.0 in
12:27 22.2 °F 17.6 °F 1021.6 in SW 12.9 mph 14.5 mph 75 % 0.0 in
12:32 22.2 °F 17.6 °F 1021.6 in West 6.4 mph 14.5 mph 75 % 0.0 in
12:42 22.3 °F 17.2 °F 1021.6 in West 8.0 mph 17.7 mph 73 % 0.0 in
12:47 22.4 °F 17.3 °F 1021.6 in SW 8.0 mph 12.9 mph 73 % 0.0 in
12:52 22.5 °F 17.2 °F 1021.6 in SW 6.4 mph 12.9 mph 72 % 0.0 in
13:02 22.4 °F 17.1 °F 1021.9 in SW 9.7 mph 11.3 mph 72 % 0.0 in
13:07 22.5 °F 17.4 °F 1021.6 in West 6.4 mph 17.7 mph 73 % 0.0 in
13:12 22.4 °F 17.3 °F 1021.6 in WSW 8.0 mph 17.7 mph 73 % 0.0 in
13:17 22.4 °F 17.3 °F 1021.9 in SW 12.9 mph 19.3 mph 73 % 0.0 in
13:22 22.4 °F 17.7 °F 1021.9 in SW 16.1 mph 19.3 mph 75 % 0.0 in
13:32 22.0 °F 17.8 °F 1021.9 in SW 8.0 mph 20.9 mph 77 % 0.0 in
13:42 21.9 °F 17.7 °F 1022.2 in WSW 6.4 mph 20.9 mph 77 % 0.0 in
13:47 21.9 °F 17.9 °F 1022.2 in WNW 8.0 mph 17.7 mph 78 % 0.0 in
13:52 21.7 °F 17.7 °F 1022.2 in West 3.2 mph 17.7 mph 78 % 0.0 in
13:57 21.7 °F 17.9 °F 1022.2 in WSW 6.4 mph 17.7 mph 79 % 0.0 in
14:02 21.6 °F 17.8 °F 1022.2 in West 6.4 mph 17.7 mph 79 % 0.0 in
14:07 21.6 °F 17.8 °F 1022.2 in West 3.2 mph 17.7 mph 79 % 0.0 in
14:12 21.6 °F 17.8 °F 1022.2 in West 4.8 mph 17.7 mph 79 % 0.0 in
14:17 21.7 °F 17.7 °F 1022.2 in West 11.3 mph 16.1 mph 78 % 0.0 in
14:22 21.5 °F 17.5 °F 1022.2 in NNW 4.8 mph 16.1 mph 78 % 0.0 in
14:32 21.5 °F 17.5 °F 1022.2 in WNW 4.8 mph 20.9 mph 78 % 0.0 in
14:37 21.4 °F 17.6 °F 1022.2 in WSW 8.0 mph 17.7 mph 79 % 0.0 in
14:42 21.3 °F 17.5 °F 1022.2 in West 16.1 mph 17.7 mph 79 % 0.0 in
14:52 21.1 °F 17.5 °F 1022.2 in West 11.3 mph 17.7 mph 80 % 0.0 in
14:57 20.9 °F 17.3 °F 1022.2 in WNW 9.7 mph 19.3 mph 80 % 0.0 in
15:02 21.0 °F 17.6 °F 1022.2 in West 4.8 mph 19.3 mph 81 % 0.0 in
15:07 21.2 °F 17.6 °F 1022.2 in WNW 8.0 mph 17.7 mph 80 % 0.0 in
15:12 21.3 °F 17.5 °F 1022.2 in WNW 12.9 mph 17.7 mph 79 % 0.0 in
15:22 21.4 °F 17.6 °F 1022.2 in WNW 6.4 mph 19.3 mph 79 % 0.0 in
15:27 21.5 °F 17.5 °F 1022.2 in WNW 11.3 mph 17.7 mph 78 % 0.0 in
15:32 21.9 °F 17.7 °F 1022.2 in Calm   17.7 mph 77 % 0.0 in
15:37 22.2 °F 17.8 °F 1021.9 in WNW 4.8 mph 16.1 mph 76 % 0.0 in
15:42 22.4 °F 17.7 °F 1021.9 in Calm   16.1 mph 75 % 0.0 in
15:47 22.8 °F 17.7 °F 1021.9 in WNW 3.2 mph 17.7 mph 73 % 0.0 in
15:52 22.8 °F 17.3 °F 1021.9 in NE 3.2 mph 17.7 mph 71 % 0.0 in
15:57 22.9 °F 17.6 °F 1021.9 in WSW 4.8 mph 17.7 mph 72 % 0.0 in
16:02 23.2 °F 17.4 °F 1021.6 in West 6.4 mph 17.7 mph 70 % 0.0 in
16:07 23.6 °F 17.6 °F 1021.6 in WSW 8.0 mph 17.7 mph 69 % 0.0 in
16:12 23.6 °F 17.1 °F 1021.6 in SSW 4.8 mph 17.7 mph 67 % 0.0 in
16:17 23.8 °F 17.1 °F 1021.6 in WSW 3.2 mph 17.7 mph 66 % 0.0 in
16:22 23.9 °F 17.2 °F 1021.6 in WSW 6.4 mph 17.7 mph 66 % 0.0 in
16:32 24.3 °F 16.8 °F 1021.6 in SW 9.7 mph 14.5 mph 63 % 0.0 in
16:42 24.4 °F 16.9 °F 1021.6 in SW 8.0 mph 17.7 mph 63 % 0.0 in
16:52 24.4 °F 17.1 °F 1021.2 in West 3.2 mph 19.3 mph 64 % 0.0 in
16:57 24.6 °F 17.1 °F 1021.2 in WNW 6.4 mph 16.1 mph 63 % 0.0 in
17:02 24.7 °F 16.9 °F 1021.2 in West 4.8 mph 16.1 mph 62 % 0.0 in
17:12 24.7 °F 16.9 °F 1021.2 in WSW 6.4 mph 12.9 mph 62 % 0.0 in
17:17 24.8 °F 17.3 °F 1021.2 in WNW 4.8 mph 11.3 mph 63 % 0.0 in
17:22 24.9 °F 16.9 °F 1020.9 in WSW 3.2 mph 11.3 mph 61 % 0.0 in
17:27 25.3 °F 17.0 °F 1020.9 in WNW 12.9 mph 14.5 mph 60 % 0.0 in
17:32 25.5 °F 16.6 °F 1020.9 in WSW 9.7 mph 14.5 mph 58 % 0.0 in
17:37 25.4 °F 16.8 °F 1020.9 in SW 4.8 mph 20.9 mph 59 % 0.0 in
17:42 25.5 °F 16.4 °F 1020.9 in South 3.2 mph 20.9 mph 57 % 0.0 in
17:52 25.8 °F 16.4 °F 1020.9 in WNW 8.0 mph 17.7 mph 56 % 0.0 in
17:57 25.7 °F 16.3 °F 1020.5 in SW 4.8 mph 17.7 mph 56 % 0.0 in
18:02 25.8 °F 16.4 °F 1020.5 in WSW 4.8 mph 17.7 mph 56 % 0.0 in
18:07 25.6 °F 16.2 °F 1020.5 in West 1.6 mph 19.3 mph 56 % 0.0 in
18:12 25.6 °F 16.4 °F 1020.5 in WSW 6.4 mph 19.3 mph 57 % 0.0 in
18:17 25.7 °F 16.5 °F 1020.5 in WNW 4.8 mph 19.3 mph 57 % 0.0 in
18:22 25.8 °F 16.1 °F 1020.5 in WSW 16.1 mph 16.1 mph 55 % 0.0 in
18:27 25.6 °F 16.4 °F 1020.5 in WNW 3.2 mph 14.5 mph 57 % 0.0 in
18:32 25.6 °F 16.4 °F 1020.5 in WSW 4.8 mph 19.3 mph 57 % 0.0 in
18:37 25.4 °F 16.3 °F 1020.5 in WSW 16.1 mph 19.3 mph 57 % 0.0 in
18:42 25.3 °F 16.4 °F 1020.5 in WSW 3.2 mph 19.3 mph 58 % 0.0 in
18:52 25.3 °F 16.4 °F 1020.5 in WSW 8.0 mph 19.3 mph 58 % 0.0 in
18:57 25.1 °F 16.3 °F 1020.5 in SW 11.3 mph 17.7 mph 58 % 0.0 in
19:02 25.0 °F 16.7 °F 1020.5 in SW 8.0 mph 17.7 mph 60 % 0.0 in
19:12 24.8 °F 16.5 °F 1020.5 in SW 8.0 mph 17.7 mph 60 % 0.0 in
19:17 24.8 °F 16.5 °F 1020.5 in SW 8.0 mph 14.5 mph 60 % 0.0 in
19:22 24.8 °F 16.8 °F 1020.5 in SW 1.6 mph 14.5 mph 61 % 0.0 in
19:27 25.0 °F 16.7 °F 1020.5 in WSW 6.4 mph 9.7 mph 60 % 0.0 in
19:32 25.3 °F 17.0 °F 1020.2 in SSW 6.4 mph 9.7 mph 60 % 0.0 in
19:37 25.4 °F 16.8 °F 1020.5 in WNW 1.6 mph 11.3 mph 59 % 0.0 in
19:42 25.7 °F 16.5 °F 1020.5 in West 4.8 mph 11.3 mph 57 % 0.0 in
19:52 25.3 °F 16.4 °F 1020.5 in NW 4.8 mph 14.5 mph 58 % 0.0 in
19:57 25.3 °F 16.4 °F 1020.5 in WNW 4.8 mph 14.5 mph 58 % 0.0 in
20:02 25.4 °F 16.5 °F 1020.5 in West 4.8 mph 14.5 mph 58 % 0.0 in
20:12 25.1 °F 16.5 °F 1020.5 in West 1.6 mph 12.9 mph 59 % 0.0 in
20:17 24.9 °F 16.3 °F 1020.9 in West 4.8 mph 11.3 mph 59 % 0.0 in
20:22 24.9 °F 16.6 °F 1020.9 in WNW 3.2 mph 11.3 mph 60 % 0.0 in
20:27 24.9 °F 16.3 °F 1020.9 in West 6.4 mph 9.7 mph 59 % 0.0 in
20:32 24.9 °F 16.6 °F 1020.9 in WNW 3.2 mph 9.7 mph 60 % 0.0 in
20:42 24.8 °F 16.5 °F 1020.9 in WNW 11.3 mph 11.3 mph 60 % 0.0 in
20:47 24.7 °F 16.4 °F 1020.9 in WNW 9.7 mph 11.3 mph 60 % 0.0 in
20:52 24.8 °F 16.5 °F 1020.9 in WNW 4.8 mph 11.3 mph 60 % 0.0 in
21:02 24.7 °F 16.7 °F 1020.9 in Calm   11.3 mph 61 % 0.0 in
21:07 24.6 °F 16.6 °F 1020.9 in Calm   4.8 mph 61 % 0.0 in
21:12 24.5 °F 16.7 °F 1020.9 in Calm   4.8 mph 62 % 0.0 in
21:17 24.3 °F 16.6 °F 1021.2 in Calm   3.2 mph 62 % 0.0 in
21:22 24.1 °F 16.4 °F 1021.2 in Calm   3.2 mph 62 % 0.0 in
21:27 23.9 °F 16.4 °F 1021.2 in Calm   1.6 mph 63 % 0.0 in
21:32 23.7 °F 16.5 °F 1021.2 in Calm   1.6 mph 64 % 0.0 in
21:37 23.6 °F 16.4 °F 1021.2 in Calm   1.6 mph 64 % 0.0 in
21:42 23.4 °F 16.4 °F 1021.6 in Calm   1.6 mph 65 % 0.0 in
21:52 23.0 °F 16.5 °F 1021.6 in Calm   1.6 mph 67 % 0.0 in
21:57 22.7 °F 16.3 °F 1021.6 in Calm   1.6 mph 67 % 0.0 in
22:02 22.5 °F 16.3 °F 1021.6 in Calm   1.6 mph 68 % 0.0 in
22:12 22.2 °F 16.5 °F 1021.6 in WSW 1.6 mph 1.6 mph 70 % 0.0 in
22:17 22.0 °F 16.5 °F 1021.6 in West 1.6 mph 1.6 mph 71 % 0.0 in
22:27 21.6 °F 16.3 °F 1021.6 in Calm   1.6 mph 72 % 0.0 in
22:32 21.3 °F 16.3 °F 1021.6 in Calm   1.6 mph 73 % 0.0 in
22:37 21.2 °F 16.4 °F 1021.9 in Calm   1.6 mph 74 % 0.0 in
22:42 21.1 °F 16.3 °F 1021.9 in Calm   1.6 mph 74 % 0.0 in
22:47 20.9 °F 16.1 °F 1021.9 in Calm   1.6 mph 74 % 0.0 in
22:52 20.7 °F 16.1 °F 1021.9 in Calm   1.6 mph 75 % 0.0 in
22:57 20.4 °F 15.8 °F 1021.9 in Calm   1.6 mph 75 % 0.0 in
23:02 20.1 °F 15.7 °F 1021.9 in Calm   1.6 mph 76 % 0.0 in
23:12 19.8 °F 15.9 °F 1021.9 in Calm     78 % 0.0 in
23:17 19.6 °F 15.7 °F 1021.9 in Calm     78 % 0.0 in
23:22 19.4 °F 15.7 °F 1021.9 in Calm     79 % 0.0 in
23:32 19.1 °F 15.6 °F 1021.9 in Calm     80 % 0.0 in
23:37 19.0 °F 15.5 °F 1021.9 in Calm     80 % 0.0 in
23:42 18.9 °F 15.8 °F 1021.9 in Calm     82 % 0.0 in
23:52 18.8 °F 15.7 °F 1021.9 in Calm     82 % 0.0 in
23:57 18.8 °F 15.7 °F 1021.9 in Calm     82 % 0.0 in
Meteo18
Compliments of Weather Underground - 4 mb

Script developed by  Jim McMurry - jmcmurry@mwt.net Adapted for the template by  Wim van der Kuil - Leuven-Template.eu

You find our weather info also at:

European Weather Network

Weather Underground

Equipment we use:

Weather-station
Davis Vue

Weather-program
Meteobridge

Weather-server
Raspberry PI 2 B+

Provider
1 and 1

Davis Vue

Meteobridge

Raspberry PI 2 B+

1 and 1